Terminal Aerodrome Forecast
Issued by NWS

Home | Current Version | Previous Version | Text Only | Print | Product List | Glossary On
Versions: 1 2 3 4 5 6 7 8 9 10 11 12 13 14 15 16 17 18 19 20 21 22 23 24 25 26 27 28 29 30 31 32 33 34 35 36 37 38 39 40 41 42 43 44 45 46 47 48 49 50
000
FTUS43 KMKX 012119 AAB
TAFENW
TAF AMD
KENW 012119Z 0121/0218 05020G32KT 1/4SM +SN BLSN OVC006
      TEMPO 0121/0124 1/2SM SN BLSN OVC009
     FM020300 02023G33KT 1/2SM SN BLSN OVC008
     FM020500 01018G30KT 3/4SM -SN BLSN OVC010
     FM020800 36015G26KT P6SM OVC015
     FM021100 34013G22KT P6SM BKN025
     FM021300 34011G19KT P6SM SCT100
     FM021700 31008KT P6SM FEW250=

USA.gov is the U.S. government's official web portal to all federal, state and local government web resources and services.